createdAt,value
2018-05-13T00:00:10.674Z,24.60
2018-05-13T00:02:38.154Z,24.92
2018-05-13T00:05:05.617Z,26.48
2018-05-13T00:07:33.119Z,29.30
2018-05-13T00:10:00.856Z,27.95
2018-05-13T00:12:28.347Z,29.27
2018-05-13T00:14:55.802Z,31.05
2018-05-13T00:17:23.280Z,34.13
2018-05-13T00:19:50.756Z,32.05
2018-05-13T00:22:18.211Z,29.98
2018-05-13T00:24:45.679Z,30.40
2018-05-13T00:27:13.143Z,34.25
2018-05-13T00:29:40.831Z,40.67
2018-05-13T00:32:08.303Z,38.03
2018-05-13T00:34:35.754Z,46.58
2018-05-13T00:37:03.218Z,50.70
2018-05-13T00:39:30.674Z,48.05
2018-05-13T00:41:58.126Z,53.28
2018-05-13T00:44:25.591Z,49.47
2018-05-13T00:46:53.041Z,49.70
2018-05-13T00:49:20.504Z,45.45
2018-05-13T00:51:47.965Z,50.35
2018-05-13T00:54:27.348Z,55.03
2018-05-13T00:56:54.793Z,60.17
2018-05-13T00:59:22.229Z,55.25
2018-05-13T01:01:49.745Z,54.35
2018-05-13T01:04:17.192Z,51.15
2018-05-13T01:06:44.699Z,48.67
2018-05-13T01:09:12.427Z,46.60
2018-05-13T01:11:40.017Z,44.55
2018-05-13T01:14:07.476Z,43.05
2018-05-13T01:16:34.934Z,41.40
2018-05-13T01:19:02.423Z,38.38
2018-05-13T01:21:29.885Z,36.75
2018-05-13T01:23:57.342Z,34.85
2018-05-13T01:26:24.791Z,35.70
2018-05-13T01:28:52.348Z,32.90
2018-05-13T01:31:19.829Z,32.33
2018-05-13T01:33:47.331Z,30.35
2018-05-13T01:36:14.806Z,31.25
2018-05-13T01:38:42.257Z,28.98
2018-05-13T01:41:09.728Z,28.62
2018-05-13T01:43:37.219Z,28.75
2018-05-13T01:46:04.664Z,28.23
2018-05-13T01:48:32.105Z,28.40
2018-05-13T01:50:59.550Z,27.67
2018-05-13T01:53:27.023Z,27.77
2018-05-13T01:55:54.488Z,28.87
2018-05-13T01:58:21.980Z,28.02
2018-05-13T02:00:49.476Z,28.87
2018-05-13T02:03:16.921Z,27.75
2018-05-13T02:05:44.355Z,27.55
2018-05-13T02:08:11.809Z,26.87
2018-05-13T02:10:40.038Z,26.80
2018-05-13T02:13:07.503Z,26.25
2018-05-13T02:15:35.025Z,27.10
2018-05-13T02:18:03.163Z,27.55
2018-05-13T02:20:30.611Z,26.50
2018-05-13T02:22:58.049Z,27.25
2018-05-13T02:25:25.530Z,27.58
2018-05-13T02:27:53.015Z,25.77
2018-05-13T02:30:20.459Z,27.10
2018-05-13T02:32:47.895Z,25.95
2018-05-13T02:35:15.355Z,27.00
2018-05-13T02:37:42.811Z,28.52
2018-05-13T02:40:10.249Z,28.38
2018-05-13T02:42:37.729Z,26.90
2018-05-13T02:45:05.185Z,28.52
2018-05-13T02:47:32.621Z,27.42
2018-05-13T02:50:00.150Z,26.60
2018-05-13T02:52:27.597Z,26.42
2018-05-13T02:54:55.163Z,25.50
2018-05-13T02:57:22.621Z,25.75
2018-05-13T02:59:50.131Z,28.35
2018-05-13T03:02:17.587Z,25.58
2018-05-13T03:04:45.036Z,27.42
2018-05-13T03:07:12.506Z,27.30
2018-05-13T03:09:39.935Z,27.35
2018-05-13T03:12:07.445Z,27.77
2018-05-13T03:14:34.860Z,28.05
2018-05-13T03:17:02.302Z,28.08
2018-05-13T03:19:29.757Z,27.27
2018-05-13T03:21:57.212Z,27.00
2018-05-13T03:24:24.701Z,27.35
2018-05-13T03:26:52.137Z,24.98
2018-05-13T03:29:19.593Z,28.27
2018-05-13T03:31:47.045Z,30.55
2018-05-13T03:34:14.497Z,26.95
2018-05-13T03:36:41.963Z,28.15
2018-05-13T03:39:09.400Z,28.42
2018-05-13T03:41:36.849Z,27.40
2018-05-13T03:44:04.313Z,27.62
2018-05-13T03:46:31.770Z,27.95
2018-05-13T03:48:59.239Z,28.73
2018-05-13T03:51:26.697Z,28.83
2018-05-13T03:53:54.161Z,25.65
2018-05-13T03:56:21.609Z,27.65
2018-05-13T03:58:49.091Z,28.70
2018-05-13T04:01:16.523Z,26.98
2018-05-13T04:03:43.979Z,28.45
2018-05-13T04:06:11.438Z,28.83
2018-05-13T04:08:50.555Z,28.02
2018-05-13T04:11:29.758Z,26.95
2018-05-13T04:14:08.913Z,28.25
2018-05-13T04:16:36.394Z,28.87
2018-05-13T04:19:03.833Z,27.42
2018-05-13T04:21:31.271Z,27.67
2018-05-13T04:23:58.709Z,26.87
2018-05-13T04:26:26.205Z,28.92
2018-05-13T04:28:53.645Z,28.45
2018-05-13T04:31:35.904Z,27.98
2018-05-13T04:34:03.345Z,29.95
2018-05-13T04:36:30.801Z,29.65
2018-05-13T04:38:58.253Z,28.05
2018-05-13T04:41:25.700Z,30.50
2018-05-13T04:43:53.159Z,30.45
2018-05-13T04:46:20.634Z,30.73
2018-05-13T04:48:48.096Z,29.85
2018-05-13T04:51:15.549Z,27.83
2018-05-13T04:53:43.000Z,29.75
2018-05-13T04:56:10.474Z,29.87
2018-05-13T04:58:37.898Z,30.30
2018-05-13T05:01:05.382Z,28.70
2018-05-13T05:03:32.882Z,29.67
2018-05-13T05:06:00.330Z,29.27
2018-05-13T05:08:27.830Z,30.12
2018-05-13T05:10:55.348Z,27.30
2018-05-13T05:13:22.848Z,28.77
2018-05-13T05:15:50.306Z,28.92
2018-05-13T05:18:17.781Z,29.00
2018-05-13T05:20:45.230Z,29.73
2018-05-13T05:23:12.676Z,28.25
2018-05-13T05:25:40.132Z,27.90
2018-05-13T05:28:07.590Z,28.38
2018-05-13T05:30:35.069Z,29.45
2018-05-13T05:33:02.590Z,28.87
2018-05-13T05:35:30.251Z,30.73
2018-05-13T05:37:57.721Z,28.08
2018-05-13T05:40:30.210Z,29.70
2018-05-13T05:42:57.664Z,28.08
2018-05-13T05:45:25.110Z,28.60
2018-05-13T05:47:52.577Z,27.73
2018-05-13T05:50:20.110Z,27.33
2018-05-13T05:52:47.504Z,27.25
2018-05-13T05:55:14.958Z,26.35
2018-05-13T05:57:42.441Z,25.88
2018-05-13T06:00:09.918Z,26.62
2018-05-13T06:02:37.452Z,24.63
2018-05-13T06:05:04.902Z,25.75
2018-05-13T06:07:32.444Z,25.62
2018-05-13T06:09:59.918Z,25.98
2018-05-13T06:12:27.374Z,25.77
2018-05-13T06:14:54.844Z,25.90
2018-05-13T06:17:22.298Z,25.33
2018-05-13T06:19:49.776Z,24.00
2018-05-13T06:22:17.285Z,26.15
2018-05-13T06:24:44.742Z,24.85
2018-05-13T06:27:12.209Z,25.55
2018-05-13T06:29:39.694Z,24.27
2018-05-13T06:32:07.165Z,24.25
2018-05-13T06:34:34.672Z,24.90
2018-05-13T06:37:02.151Z,22.70
2018-05-13T06:39:29.710Z,22.62
2018-05-13T06:41:57.178Z,21.73
2018-05-13T06:44:24.618Z,20.73
2018-05-13T06:46:52.167Z,22.40
2018-05-13T06:49:19.690Z,22.10
2018-05-13T06:51:47.204Z,20.35
2018-05-13T06:54:14.662Z,20.83
2018-05-13T06:56:42.102Z,21.23
2018-05-13T06:59:09.552Z,20.52
2018-05-13T07:01:37.075Z,21.33
2018-05-13T07:04:04.520Z,18.87
2018-05-13T07:06:31.974Z,20.98
2018-05-13T07:08:59.526Z,18.95
2018-05-13T07:11:27.030Z,19.45
2018-05-13T07:13:55.342Z,18.12
2018-05-13T07:16:22.927Z,18.20
2018-05-13T07:18:50.364Z,17.83
2018-05-13T07:21:17.896Z,17.65
2018-05-13T07:23:45.460Z,18.23
2018-05-13T07:26:13.731Z,17.73
2018-05-13T07:28:41.218Z,17.02
2018-05-13T07:31:08.685Z,17.23
2018-05-13T07:33:36.160Z,16.37
2018-05-13T07:36:03.615Z,15.05
2018-05-13T07:38:31.048Z,16.02
2018-05-13T07:40:58.534Z,14.40
2018-05-13T07:43:26.145Z,15.20
2018-05-13T07:45:53.514Z,14.43
2018-05-13T07:48:20.996Z,15.38
2018-05-13T07:50:48.571Z,14.68
2018-05-13T07:53:16.218Z,13.35
2018-05-13T07:55:44.529Z,12.85
2018-05-13T07:58:12.255Z,12.75
2018-05-13T08:00:39.726Z,11.63
2018-05-13T08:03:07.252Z,12.80
2018-05-13T08:05:34.689Z,12.98
2018-05-13T08:08:02.150Z,12.98
2018-05-13T08:10:29.613Z,11.77
2018-05-13T08:12:57.601Z,10.63
2018-05-13T08:15:25.041Z,11.45
2018-05-13T08:17:52.522Z,12.25
2018-05-13T08:20:20.352Z,10.30
2018-05-13T08:22:47.756Z,10.48
2018-05-13T08:25:15.323Z,10.98
2018-05-13T08:27:42.826Z,12.65
2018-05-13T08:30:10.336Z,10.52
2018-05-13T08:32:37.795Z,11.00
2018-05-13T08:35:05.348Z,11.88
2018-05-13T08:37:32.786Z,11.82
2018-05-13T08:40:00.366Z,9.68
2018-05-13T08:42:28.715Z,11.38
2018-05-13T08:45:03.810Z,10.93
2018-05-13T08:47:31.396Z,9.90
2018-05-13T08:50:00.018Z,13.20
2018-05-13T08:52:27.505Z,9.82
2018-05-13T08:54:55.043Z,9.93
2018-05-13T08:57:22.797Z,9.50
2018-05-13T08:59:50.326Z,9.60
2018-05-13T09:02:17.887Z,9.98
2018-05-13T09:04:45.610Z,11.88
2018-05-13T09:07:13.184Z,9.52
2018-05-13T09:09:40.720Z,10.00
2018-05-13T09:12:08.267Z,7.97
2018-05-13T09:14:36.120Z,7.78
2018-05-13T09:17:03.676Z,10.07
2018-05-13T09:19:31.624Z,8.30
2018-05-13T09:21:59.401Z,10.25
2018-05-13T09:24:26.942Z,9.80
2018-05-13T09:26:54.408Z,8.38
2018-05-13T09:29:22.092Z,10.75
2018-05-13T09:31:50.004Z,6.70
2018-05-13T09:34:17.592Z,8.55
2018-05-13T09:36:45.211Z,7.03
2018-05-13T09:39:12.793Z,10.27
2018-05-13T09:41:40.400Z,8.77
2018-05-13T09:44:07.852Z,10.30
2018-05-13T09:46:35.313Z,7.78
2018-05-13T09:49:02.786Z,7.85
2018-05-13T09:54:22.660Z,7.55
2018-05-13T09:56:50.122Z,7.37
2018-05-13T09:59:17.664Z,6.40
2018-05-13T10:02:08.857Z,8.10
2018-05-13T10:04:36.314Z,8.75
2018-05-13T10:07:03.951Z,7.78
2018-05-13T10:09:31.512Z,8.98
2018-05-13T10:12:13.353Z,8.18
2018-05-13T10:14:40.792Z,7.20
2018-05-13T10:17:08.271Z,6.05
2018-05-13T10:19:36.628Z,6.50
2018-05-13T10:22:04.081Z,10.00
2018-05-13T10:24:31.626Z,7.60
2018-05-13T10:26:59.095Z,7.37
2018-05-13T10:29:26.585Z,7.07
2018-05-13T10:35:06.196Z,6.80
2018-05-13T10:37:33.651Z,5.45
2018-05-13T10:40:01.096Z,6.90
2018-05-13T10:42:29.123Z,10.57
2018-05-13T10:44:56.763Z,9.98
2018-05-13T10:47:24.363Z,6.32
2018-05-13T10:49:52.833Z,4.93
2018-05-13T10:52:20.294Z,6.35
2018-05-13T10:54:48.678Z,6.87
2018-05-13T10:57:16.261Z,9.43
2018-05-13T10:59:43.821Z,5.78
2018-05-13T11:02:11.574Z,9.77
2018-05-13T11:04:39.068Z,6.00
2018-05-13T11:07:06.630Z,6.57
2018-05-13T11:09:34.141Z,7.20
2018-05-13T11:12:25.280Z,7.12
2018-05-13T11:14:52.872Z,7.12
2018-05-13T11:17:20.469Z,8.27
2018-05-13T11:19:48.029Z,8.23
2018-05-13T11:22:15.499Z,7.90
2018-05-13T11:24:43.042Z,7.50
2018-05-13T11:27:10.503Z,13.02
2018-05-13T11:29:37.941Z,8.90
2018-05-13T11:32:05.455Z,10.38
2018-05-13T11:34:33.844Z,9.52
2018-05-13T11:37:01.310Z,8.70
2018-05-13T11:39:28.852Z,14.05
2018-05-13T11:42:01.299Z,9.98
2018-05-13T11:44:29.795Z,11.52
2018-05-13T11:46:57.270Z,9.18
2018-05-13T11:49:24.746Z,6.97
2018-05-13T11:51:52.204Z,6.93
2018-05-13T11:54:20.411Z,10.70
2018-05-13T11:56:47.981Z,6.87
2018-05-13T11:59:15.511Z,8.50
2018-05-13T12:01:44.042Z,7.82
2018-05-13T12:04:11.616Z,9.25
2018-05-13T12:06:39.360Z,6.43
2018-05-13T12:09:06.824Z,8.10
2018-05-13T12:11:34.517Z,6.25
2018-05-13T12:14:02.420Z,7.93
2018-05-13T12:16:30.070Z,7.55
2018-05-13T12:18:57.599Z,7.40
2018-05-13T12:21:25.948Z,8.25
2018-05-13T12:23:53.486Z,9.10
2018-05-13T12:26:21.646Z,7.57
2018-05-13T12:28:49.435Z,7.60
2018-05-13T12:31:16.977Z,5.50
2018-05-13T12:33:44.616Z,7.18
2018-05-13T12:36:12.879Z,7.40
2018-05-13T12:38:41.908Z,6.73
2018-05-13T12:41:09.437Z,6.37
2018-05-13T12:43:36.984Z,8.30
2018-05-13T12:46:04.445Z,6.47
2018-05-13T12:48:31.891Z,6.57
2018-05-13T12:50:59.643Z,5.15
2018-05-13T12:53:27.143Z,5.93
2018-05-13T12:55:54.610Z,7.60
2018-05-13T12:58:22.140Z,6.70
2018-05-13T13:00:49.564Z,6.50
2018-05-13T13:03:17.027Z,6.70
2018-05-13T13:05:44.489Z,5.37
2018-05-13T13:08:11.939Z,6.60
2018-05-13T13:10:39.384Z,6.73
2018-05-13T13:13:06.853Z,6.67
2018-05-13T13:15:34.328Z,5.03
2018-05-13T13:18:01.771Z,6.90
2018-05-13T13:20:29.254Z,7.67
2018-05-13T13:22:56.754Z,5.60
2018-05-13T13:25:24.208Z,6.18
2018-05-13T13:27:51.715Z,5.15
2018-05-13T13:30:19.226Z,7.30
2018-05-13T13:32:46.642Z,4.47
2018-05-13T13:35:14.112Z,5.18
2018-05-13T13:37:41.531Z,4.82
2018-05-13T13:40:09.019Z,7.20
2018-05-13T13:42:36.471Z,5.82
2018-05-13T13:45:03.923Z,5.75
2018-05-13T13:47:31.375Z,7.28
2018-05-13T13:49:58.855Z,3.80
2018-05-13T13:52:26.475Z,5.03
2018-05-13T13:54:53.937Z,7.30
2018-05-13T13:57:21.382Z,4.70
2018-05-13T13:59:48.902Z,3.58
2018-05-13T14:02:16.345Z,6.55
2018-05-13T14:04:43.789Z,6.22
2018-05-13T14:07:11.324Z,5.32
2018-05-13T14:09:38.757Z,3.70
2018-05-13T14:12:06.227Z,5.60
2018-05-13T14:14:33.731Z,7.15
2018-05-13T14:17:01.223Z,4.18
2018-05-13T14:19:28.752Z,4.68
2018-05-13T14:21:56.203Z,5.37
2018-05-13T14:24:23.649Z,5.18
2018-05-13T14:26:52.734Z,11.55
2018-05-13T14:29:20.183Z,3.80
2018-05-13T14:31:47.680Z,3.90
2018-05-13T14:34:15.217Z,3.70
2018-05-13T14:36:42.825Z,4.25
2018-05-13T14:39:12.255Z,4.70
2018-05-13T14:41:37.767Z,4.37
2018-05-13T14:44:05.229Z,6.78
2018-05-13T14:46:32.672Z,4.30
2018-05-13T14:49:00.145Z,4.72
2018-05-13T14:51:27.689Z,5.65
2018-05-13T14:53:55.225Z,6.30
2018-05-13T14:56:22.669Z,5.15
2018-05-13T14:58:50.231Z,6.18
2018-05-13T15:01:17.671Z,7.20
2018-05-13T15:03:45.162Z,12.37
2018-05-13T15:06:12.618Z,6.55
2018-05-13T15:08:40.406Z,5.55
2018-05-13T15:11:08.030Z,6.35
2018-05-13T15:13:35.752Z,10.02
2018-05-13T15:16:03.203Z,24.27
2018-05-13T15:18:30.727Z,5.43
2018-05-13T15:20:58.302Z,5.15
2018-05-13T15:23:25.759Z,5.87
2018-05-13T15:25:53.234Z,6.15
2018-05-13T15:28:20.729Z,3.92
2018-05-13T15:30:48.192Z,4.12
2018-05-13T15:33:15.622Z,4.87
2018-05-13T15:35:43.072Z,5.93
2018-05-13T15:38:10.562Z,5.25
2018-05-13T15:40:38.040Z,5.87
2018-05-13T15:43:05.538Z,4.15
2018-05-13T15:45:32.974Z,3.45
2018-05-13T15:48:00.450Z,4.50
2018-05-13T15:50:27.976Z,4.53
2018-05-13T15:52:55.420Z,5.80
2018-05-13T15:55:22.848Z,5.95
2018-05-13T15:57:50.300Z,4.50
2018-05-13T16:00:17.885Z,4.87
2018-05-13T16:02:45.322Z,7.20
2018-05-13T16:05:12.784Z,4.12
2018-05-13T16:07:40.274Z,6.50
2018-05-13T16:10:07.818Z,5.35
2018-05-13T16:12:35.320Z,4.72
2018-05-13T16:15:02.822Z,5.95
2018-05-13T16:17:30.318Z,4.72
2018-05-13T16:19:57.872Z,5.30
2018-05-13T16:22:25.336Z,4.62
2018-05-13T16:24:52.795Z,4.87
2018-05-13T16:27:20.220Z,3.15
2018-05-13T16:29:47.710Z,5.90
2018-05-13T16:32:16.970Z,4.60
2018-05-13T16:34:44.426Z,4.95
2018-05-13T16:37:11.884Z,5.80
2018-05-13T16:39:39.336Z,5.30
2018-05-13T16:42:06.802Z,5.78
2018-05-13T16:44:34.350Z,5.60
2018-05-13T16:47:01.803Z,4.20
2018-05-13T16:49:29.244Z,6.30
2018-05-13T16:51:56.681Z,3.70
2018-05-13T16:54:24.145Z,4.45
2018-05-13T16:56:51.586Z,5.95
2018-05-13T16:59:19.093Z,3.65
2018-05-13T17:01:46.639Z,8.10
2018-05-13T17:04:14.133Z,5.25
2018-05-13T17:06:41.740Z,5.97
2018-05-13T17:09:09.193Z,5.85
2018-05-13T17:11:36.652Z,5.22
2018-05-13T17:14:04.116Z,9.55
2018-05-13T17:16:31.644Z,6.40
2018-05-13T17:18:59.097Z,7.07
2018-05-13T17:21:26.564Z,5.37
2018-05-13T17:23:54.016Z,6.35
2018-05-13T17:26:21.478Z,6.95
2018-05-13T17:28:48.971Z,5.82
2018-05-13T17:31:16.440Z,7.65
2018-05-13T17:33:43.906Z,4.95
2018-05-13T17:36:11.413Z,3.65
2018-05-13T17:38:38.895Z,7.03
2018-05-13T17:41:16.117Z,6.30
2018-05-13T17:43:43.515Z,9.13
2018-05-13T17:46:11.023Z,5.68
2018-05-13T17:48:39.402Z,5.05
2018-05-13T17:51:07.033Z,6.10
2018-05-13T17:53:34.501Z,4.05
2018-05-13T17:56:01.996Z,6.20
2018-05-13T17:58:29.479Z,4.45
2018-05-13T18:00:57.182Z,9.38
2018-05-13T18:03:24.681Z,11.18
2018-05-13T18:05:52.073Z,10.07
2018-05-13T18:08:19.534Z,11.50
2018-05-13T18:10:46.976Z,13.40
2018-05-13T18:13:14.530Z,12.65
2018-05-13T18:15:41.996Z,16.73
2018-05-13T18:18:09.452Z,13.35
2018-05-13T18:20:36.980Z,12.02
2018-05-13T18:23:04.417Z,15.50
2018-05-13T18:25:31.944Z,12.75
2018-05-13T18:27:59.616Z,9.20
2018-05-13T18:30:29.243Z,9.95
2018-05-13T18:32:56.792Z,7.78
2018-05-13T18:35:24.275Z,8.80
2018-05-13T18:37:51.772Z,12.77
2018-05-13T18:40:19.448Z,9.00
2018-05-13T18:42:46.934Z,7.95
2018-05-13T18:45:14.408Z,9.10
2018-05-13T18:47:41.920Z,9.27
2018-05-13T18:50:09.433Z,8.00
2018-05-13T18:58:42.394Z,5.60
2018-05-13T19:01:24.171Z,7.78
2018-05-13T19:03:51.715Z,5.78
2018-05-13T19:06:20.063Z,6.25
2018-05-13T19:08:47.678Z,5.68
2018-05-13T19:11:15.221Z,7.20
2018-05-13T19:13:42.696Z,5.07
2018-05-13T19:16:10.408Z,4.87
2018-05-13T19:18:38.046Z,5.80
2018-05-13T19:21:05.578Z,4.03
2018-05-13T19:23:33.187Z,5.70
2018-05-13T19:26:00.701Z,6.05
2018-05-13T19:28:28.459Z,6.10
2018-05-13T19:30:56.338Z,5.87
2018-05-13T19:33:23.787Z,4.20
2018-05-13T19:35:51.284Z,5.82
2018-05-13T19:38:18.754Z,5.22
2018-05-13T19:40:47.011Z,6.47
2018-05-13T19:43:14.491Z,4.32
2018-05-13T19:45:41.996Z,6.32
2018-05-13T19:48:09.860Z,5.50
2018-05-13T19:50:51.683Z,4.72
2018-05-13T19:53:19.162Z,6.37
2018-05-13T19:55:47.569Z,4.80
2018-05-13T19:58:15.157Z,5.97
2018-05-13T20:00:42.634Z,5.95
2018-05-13T20:03:10.159Z,6.75
2018-05-13T20:05:37.588Z,6.68
2018-05-13T20:08:05.079Z,5.53
2018-05-13T20:10:32.581Z,7.97
2018-05-13T20:13:00.038Z,4.53
2018-05-13T20:15:27.534Z,6.37
2018-05-13T20:17:55.031Z,5.43
2018-05-13T20:20:22.550Z,5.87
2018-05-13T20:23:01.743Z,6.32
2018-05-13T20:25:29.207Z,5.80
2018-05-13T20:27:57.648Z,6.65
2018-05-13T20:30:25.146Z,3.97
2018-05-13T20:32:52.591Z,6.53
2018-05-13T20:35:20.103Z,5.00
2018-05-13T20:37:47.564Z,6.87
2018-05-13T20:40:15.006Z,6.73
2018-05-13T20:42:52.123Z,6.97
2018-05-13T20:45:19.575Z,5.72
2018-05-13T20:47:47.134Z,5.62
2018-05-13T20:50:14.592Z,3.83
2018-05-13T20:52:42.083Z,6.07
2018-05-13T20:55:09.607Z,4.95
2018-05-13T20:57:37.272Z,7.62
2018-05-13T21:00:04.743Z,4.97
2018-05-13T21:02:32.181Z,4.93
2018-05-13T21:04:59.647Z,4.53
2018-05-13T21:07:27.095Z,7.55
2018-05-13T21:09:54.527Z,6.10
2018-05-13T21:12:21.971Z,6.45
2018-05-13T21:14:49.418Z,5.97
2018-05-13T21:17:16.925Z,7.62
2018-05-13T21:19:44.404Z,7.25
2018-05-13T21:22:11.879Z,5.78
2018-05-13T21:24:39.315Z,4.72
2018-05-13T21:27:06.977Z,5.90
2018-05-13T21:29:34.425Z,5.43
2018-05-13T21:32:01.873Z,6.40
2018-05-13T21:34:29.339Z,5.00
2018-05-13T21:36:56.769Z,4.28
2018-05-13T21:39:24.235Z,6.05
2018-05-13T21:41:51.707Z,4.12
2018-05-13T21:44:19.191Z,4.55
2018-05-13T21:46:46.623Z,7.85
2018-05-13T21:49:14.079Z,7.55
2018-05-13T21:51:41.537Z,5.53
2018-05-13T21:54:08.995Z,3.72
2018-05-13T21:56:36.436Z,4.78
2018-05-13T21:59:03.910Z,9.25
2018-05-13T22:01:31.373Z,6.85
2018-05-13T22:03:59.034Z,5.50
2018-05-13T22:06:26.919Z,6.37
2018-05-13T22:08:54.358Z,5.83
2018-05-13T22:11:26.751Z,5.97
2018-05-13T22:13:54.194Z,5.90
2018-05-13T22:16:21.650Z,5.78
2018-05-13T22:18:49.092Z,7.03
2018-05-13T22:21:16.557Z,4.90
2018-05-13T22:23:43.994Z,5.82
2018-05-13T22:26:11.490Z,5.62
2018-05-13T22:28:38.954Z,5.17
2018-05-13T22:31:06.410Z,4.30
2018-05-13T22:33:33.864Z,6.35
2018-05-13T22:36:02.268Z,5.00
2018-05-13T22:38:30.311Z,4.60
2018-05-13T22:40:58.414Z,5.72
2018-05-13T22:43:25.850Z,4.63
2018-05-13T22:45:53.596Z,5.80
2018-05-13T22:48:22.739Z,6.32
2018-05-13T22:50:52.133Z,7.70
2018-05-13T22:53:20.533Z,5.60
2018-05-13T22:55:48.297Z,5.57
2018-05-13T22:58:15.731Z,6.90
2018-05-13T23:00:43.266Z,6.05
2018-05-13T23:03:10.741Z,5.20
2018-05-13T23:05:39.087Z,11.00
2018-05-13T23:08:07.543Z,5.97
2018-05-13T23:10:35.169Z,5.53
2018-05-13T23:13:02.618Z,7.97
2018-05-13T23:15:30.081Z,7.22
2018-05-13T23:17:57.538Z,5.25
2018-05-13T23:20:25.172Z,6.25
2018-05-13T23:22:52.643Z,5.78
2018-05-13T23:25:20.279Z,6.17
2018-05-13T23:27:47.767Z,5.30
2018-05-13T23:30:15.248Z,6.75
2018-05-13T23:35:35.524Z,5.75
2018-05-13T23:38:03.066Z,6.10
2018-05-13T23:40:30.538Z,4.78
2018-05-13T23:42:58.036Z,5.12
2018-05-13T23:45:25.475Z,5.70
2018-05-13T23:47:53.154Z,5.93
2018-05-13T23:50:21.633Z,6.80
2018-05-13T23:52:49.087Z,6.00
2018-05-13T23:55:17.207Z,5.90
2018-05-13T23:57:44.662Z,5.68
